Time;durP1;ratioP1;P1;durP2;ratioP2;P2;SDS_P1;SDS_P2;PMS_P1;PMS_P2;Temp;Humidity;BMP_temperature;BMP_pressure;BME280_temperature;BME280_humidity;BME280_pressure;Samples;Min_cycle;Max_cycle;Signal;HPM_P1;HPM_P2
2023/11/14 06:46:14;;;;;;;22.17;4.50;;;;;;;;;;10583666;27;20907;-83
2023/11/14 06:51:21;;;;;;;19.52;4.18;;;;;;;;;;10583907;28;20028;-87
2023/11/14 07:07:15;;;;;;;;;;;;;;;;;;10617234;27;20384;-85
2023/11/14 07:12:16;;;;;;;18.77;3.83;;;;;;;;;;10566527;28;19939;-86
2023/11/14 07:17:18;;;;;;;17.40;4.00;;;;;;;;;;10581662;28;20451;-86
2023/11/14 07:22:19;;;;;;;16.58;4.15;;;;;;;;;;10587026;28;20036;-86
2023/11/14 07:27:20;;;;;;;19.83;3.63;;;;;;;;;;10624396;28;20035;-85
2023/11/14 07:32:22;;;;;;;19.05;4.05;;;;;;;;;;10620146;28;20135;-87
2023/11/14 07:37:23;;;;;;;19.13;4.78;;;;;;;;;;10584567;28;20126;-85
2023/11/14 07:42:24;;;;;;;16.50;3.90;;;;;;;;;;10583828;28;20528;-86
2023/11/14 07:47:33;;;;;;;22.05;4.90;;;;;;;;;;10597223;28;20016;-83
2023/11/14 07:52:34;;;;;;;15.05;4.05;;;;;;;;;;10607050;28;20078;-86
2023/11/14 08:03:06;;;;;;;12.93;3.10;;;;;;;;;;10578909;28;20040;-88
2023/11/14 08:08:08;;;;;;;9.77;2.80;;;;;;;;;;10555698;28;20373;-84
2023/11/14 08:13:09;;;;;;;15.02;3.30;;;;;;;;;;10569815;28;20051;-83
2023/11/14 08:18:12;;;;;;;12.40;3.55;;;;;;;;;;10554523;28;20476;-84
2023/11/14 08:23:14;;;;;;;9.70;3.08;;;;;;;;;;10552678;28;20058;-85
2023/11/14 08:28:14;;;;;;;;;;;;;;;;;;10553621;28;20044;-85
2023/11/14 08:33:16;;;;;;;12.80;3.30;;;;;;;;;;10537146;28;19907;-85
2023/11/14 08:38:17;;;;;;;;;;;;;;;;;;10555498;28;20035;-86
2023/11/14 08:43:18;;;;;;;9.38;3.78;;;;;;;;;;10542591;28;19943;-86
2023/11/14 08:48:19;;;;;;;;;;;;;;;;;;10556070;28;20028;-84
2023/11/14 08:53:21;;;;;;;9.63;3.08;;;;;;;;;;10537195;28;19908;-85
2023/11/14 08:58:23;;;;;;;13.75;3.72;;;;;;;;;;10554893;28;20058;-85
2023/11/14 09:03:24;;;;;;;13.65;3.60;;;;;;;;;;10558526;28;20064;-85
2023/11/14 09:08:25;;;;;;;13.63;3.88;;;;;;;;;;10539504;28;20052;-84
2023/11/14 09:13:26;;;;;;;;;;;;;;;;;;10574655;28;20375;-84
2023/11/14 09:18:27;;;;;;;11.80;3.40;;;;;;;;;;10564656;28;19941;-83
2023/11/14 09:23:29;;;;;;;11.38;3.55;;;;;;;;;;10559006;28;20043;-85
2023/11/14 09:28:30;;;;;;;;;;;;;;;;;;10566244;28;20040;-85
2023/11/14 09:33:32;;;;;;;10.73;3.50;;;;;;;;;;10538286;28;19914;-83
2023/11/14 09:38:33;;;;;;;13.30;3.75;;;;;;;;;;10556023;28;20048;-85
2023/11/14 09:43:34;;;;;;;;;;;;;;;;;;10556406;28;20032;-85
2023/11/14 09:48:37;;;;;;;10.57;3.58;;;;;;;;;;10541068;28;19926;-85
2023/11/14 09:53:44;;;;;;;10.55;3.28;;;;;;;;;;10557305;28;20036;-85
2023/11/14 09:58:47;;;;;;;12.18;3.70;;;;;;;;;;10559445;28;20032;-85
2023/11/14 10:03:48;;;;;;;14.90;3.72;;;;;;;;;;10561162;28;20032;-84
2023/11/14 10:08:50;;;;;;;11.57;3.50;;;;;;;;;;10559149;28;20127;-83
2023/11/14 10:14:02;;;;;;;15.27;4.80;;;;;;;;;;10558973;28;20032;-85
2023/11/14 10:19:13;;;;;;;13.07;3.33;;;;;;;;;;10557263;28;20020;-84
2023/11/14 10:24:16;;;;;;;11.93;3.13;;;;;;;;;;10552843;28;20119;-84
2023/11/14 10:29:20;;;;;;;14.27;3.78;;;;;;;;;;10555631;28;20040;-83
2023/11/14 10:34:28;;;;;;;13.82;3.63;;;;;;;;;;10548962;28;20032;-83
2023/11/14 10:39:29;;;;;;;21.90;8.70;;;;;;;;;;10548970;28;20361;-83
2023/11/14 10:44:30;;;;;;;;;;;;;;;;;;10562237;28;20035;-83
2023/11/14 10:49:45;;;;;;;20.38;6.47;;;;;;;;;;10531616;28;19908;-83
2023/11/14 10:54:47;;;;;;;14.82;3.97;;;;;;;;;;10551292;28;20036;-84
2023/11/14 10:59:48;;;;;;;15.10;3.95;;;;;;;;;;10551543;28;20043;-84
2023/11/14 11:04:50;;;;;;;;;;;;;;;;;;10552301;28;20055;-83
2023/11/14 11:09:52;;;;;;;18.60;6.85;;;;;;;;;;10534031;28;19962;-83
2023/11/14 11:14:54;;;;;;;19.83;5.85;;;;;;;;;;10551635;28;20081;-84
2023/11/14 11:19:55;;;;;;;14.57;4.00;;;;;;;;;;10573363;28;20062;-83
2023/11/14 11:24:56;;;;;;;;;;;;;;;;;;10555762;28;20036;-84
2023/11/14 11:30:00;;;;;;;12.77;3.58;;;;;;;;;;10535496;28;19904;-85
2023/11/14 11:35:20;;;;;;;15.60;5.60;;;;;;;;;;10572059;28;20060;-84
2023/11/14 11:40:27;;;;;;;14.48;4.13;;;;;;;;;;10574461;28;20028;-86
2023/11/14 11:45:28;;;;;;;11.27;3.03;;;;;;;;;;10564947;28;20395;-83
2023/11/14 11:50:34;;;;;;;8.50;3.00;;;;;;;;;;10554677;28;20059;-83
2023/11/14 11:55:36;;;;;;;14.13;5.97;;;;;;;;;;10557356;28;20032;-83
2023/11/14 12:00:37;;;;;;;9.27;3.55;;;;;;;;;;10572613;28;20494;-83
2023/11/14 12:05:38;;;;;;;11.13;2.90;;;;;;;;;;10556571;28;20103;-83
2023/11/14 12:10:39;;;;;;;7.85;2.30;;;;;;;;;;10554769;28;20184;-83
2023/11/14 12:15:41;;;;;;;;;;;;;;;;;;10554228;28;20090;-82
2023/11/14 12:20:44;;;;;;;8.50;2.28;;;;;;;;;;10554299;28;20005;-82
2023/11/14 12:25:45;;;;;;;14.30;6.38;;;;;;;;;;10553200;28;20095;-82
2023/11/14 12:30:46;;;;;;;;;;;;;;;;;;10551730;28;20042;-83
2023/11/14 12:35:48;;;;;;;;;;;;;;;;;;10538138;28;20317;-82
2023/11/14 12:40:52;;;;;;;11.27;3.58;;;;;;;;;;10532863;28;20308;-82
2023/11/14 12:45:55;;;;;;;9.70;3.00;;;;;;;;;;10555546;28;20043;-82
2023/11/14 12:50:56;;;;;;;11.25;3.90;;;;;;;;;;10555417;28;20036;-83
2023/11/14 12:55:59;;;;;;;;;;;;;;;;;;10556901;28;20131;-82
2023/11/14 13:12:21;;;;;;;7.95;2.47;;;;;;;;;;10468346;28;20029;-86
2023/11/14 13:17:32;;;;;;;;;;;;;;;;;;10536303;28;20059;-86
2023/11/14 13:39:50;;;;;;;6.80;1.95;;;;;;;;;;10557016;28;20056;-86
2023/11/14 13:45:36;;;;;;;6.57;2.20;;;;;;;;;;10566565;28;20026;-85
2023/11/14 13:50:38;;;;;;;5.60;2.00;;;;;;;;;;10578192;28;20036;-86
2023/11/14 13:56:37;;;;;;;10.23;2.42;;;;;;;;;;10543990;28;20441;-86
2023/11/14 14:02:22;;;;;;;4.82;1.83;;;;;;;;;;10548395;28;20093;-86
2023/11/14 14:07:30;;;;;;;4.53;1.80;;;;;;;;;;10536013;28;20043;-86
2023/11/14 14:12:31;;;;;;;;;;;;;;;;;;10550836;28;20040;-84
2023/11/14 14:17:33;;;;;;;6.03;2.10;;;;;;;;;;10535974;28;19911;-87
2023/11/14 14:22:34;;;;;;;5.07;2.05;;;;;;;;;;10552536;28;20040;-86
2023/11/14 14:27:35;;;;;;;;;;;;;;;;;;10553639;28;20064;-86
2023/11/14 14:32:37;;;;;;;4.28;1.73;;;;;;;;;;10536957;28;19914;-86
2023/11/14 14:37:38;;;;;;;5.53;1.80;;;;;;;;;;10566117;28;20024;-86
2023/11/14 14:42:40;;;;;;;;;;;;;;;;;;10553248;28;20063;-86
2023/11/14 14:47:41;;;;;;;4.85;2.00;;;;;;;;;;10544523;28;19904;-86
2023/11/14 14:52:42;;;;;;;;;;;;;;;;;;10560006;28;20127;-86
2023/11/14 14:57:44;;;;;;;5.47;2.38;;;;;;;;;;10540275;28;20066;-84
2023/11/14 15:02:45;;;;;;;3.40;1.70;;;;;;;;;;10552403;28;20048;-84
2023/11/14 15:07:47;;;;;;;;;;;;;;;;;;10553926;28;20067;-85
2023/11/14 15:12:48;;;;;;;3.67;1.77;;;;;;;;;;10537209;28;19914;-86
2023/11/14 15:17:54;;;;;;;;;;;;;;;;;;10554719;28;20472;-87
2023/11/14 15:22:55;;;;;;;6.03;2.30;;;;;;;;;;10538367;28;19954;-86
2023/11/14 15:27:56;;;;;;;;;;;;;;;;;;10555545;28;20093;-86
2023/11/14 15:32:57;;;;;;;5.88;1.98;;;;;;;;;;10537497;28;19908;-86
2023/11/14 15:38:00;;;;;;;3.35;1.60;;;;;;;;;;10553622;28;20032;-86
2023/11/14 15:43:01;;;;;;;5.13;1.80;;;;;;;;;;10552261;28;20032;-86
2023/11/14 15:48:02;;;;;;;;;;;;;;;;;;10553872;28;20112;-87
2023/11/14 15:53:04;;;;;;;4.82;2.05;;;;;;;;;;10535050;28;19908;-86
2023/11/14 15:58:05;;;;;;;5.47;2.30;;;;;;;;;;10554879;28;20059;-85
2023/11/14 16:03:06;;;;;;;5.50;2.35;;;;;;;;;;10558853;28;20098;-87
2023/11/14 16:08:07;;;;;;;7.93;2.53;;;;;;;;;;10559786;28;20039;-85
2023/11/14 16:13:09;;;;;;;3.22;1.80;;;;;;;;;;10557594;28;20063;-84
2023/11/14 16:18:10;;;;;;;4.50;2.28;;;;;;;;;;10557964;28;20202;-85
2023/11/14 16:23:11;;;;;;;6.70;2.78;;;;;;;;;;10554525;28;20067;-85
2023/11/14 16:28:13;;;;;;;4.72;1.83;;;;;;;;;;10553445;28;20555;-86
2023/11/14 16:33:14;;;;;;;4.53;1.85;;;;;;;;;;10552894;28;20509;-84
2023/11/14 16:38:15;;;;;;;6.85;2.60;;;;;;;;;;10550975;28;20087;-82
2023/11/14 16:43:16;;;;;;;3.67;1.67;;;;;;;;;;10553646;28;20113;-84
2023/11/14 16:48:17;;;;;;;5.60;2.65;;;;;;;;;;10568909;28;20032;-83
2023/11/14 16:53:18;;;;;;;4.50;2.15;;;;;;;;;;10589395;28;20047;-84
2023/11/14 16:58:19;;;;;;;6.40;2.75;;;;;;;;;;10584776;28;20040;-85
2023/11/14 17:03:20;;;;;;;5.03;2.03;;;;;;;;;;10572530;28;20036;-85
2023/11/14 17:08:21;;;;;;;3.67;1.80;;;;;;;;;;10568343;28;20031;-85
2023/11/14 17:13:22;;;;;;;4.20;2.10;;;;;;;;;;10573101;28;20044;-84
2023/11/14 17:18:23;;;;;;;6.65;2.13;;;;;;;;;;10565161;28;20043;-83
2023/11/14 17:23:24;;;;;;;5.68;2.15;;;;;;;;;;10585457;28;20039;-84
2023/11/14 17:28:25;;;;;;;5.10;2.13;;;;;;;;;;10570497;28;20044;-85
2023/11/14 17:33:26;;;;;;;5.38;2.30;;;;;;;;;;10547838;28;20032;-85
2023/11/14 17:38:27;;;;;;;4.57;2.00;;;;;;;;;;10547916;28;20036;-85
2023/11/14 17:43:28;;;;;;;5.88;2.33;;;;;;;;;;10552940;28;20123;-87
2023/11/14 17:48:30;;;;;;;8.38;2.63;;;;;;;;;;10544416;28;20036;-88
2023/11/14 17:53:31;;;;;;;5.20;2.03;;;;;;;;;;10543269;28;20499;-88
2023/11/14 17:58:32;;;;;;;3.45;1.65;;;;;;;;;;10543945;28;20042;-88
2023/11/14 18:03:34;;;;;;;4.32;2.13;;;;;;;;;;10544299;28;20050;-88
2023/11/14 18:08:35;;;;;;;3.78;1.98;;;;;;;;;;10543385;28;20055;-88
2023/11/14 18:13:36;;;;;;;6.20;2.60;;;;;;;;;;10544119;28;20122;-87
2023/11/14 18:18:37;;;;;;;3.70;1.80;;;;;;;;;;10542332;28;20035;-87
2023/11/14 18:23:38;;;;;;;4.55;2.10;;;;;;;;;;10550943;28;20408;-85
2023/11/14 18:28:41;;;;;;;3.67;2.13;;;;;;;;;;10556380;28;20051;-85
2023/11/14 18:33:43;;;;;;;3.67;1.90;;;;;;;;;;10549645;28;20032;-85
2023/11/14 18:38:46;;;;;;;3.00;1.70;;;;;;;;;;10551277;28;20028;-86
2023/11/14 18:43:47;;;;;;;3.42;1.70;;;;;;;;;;10550673;28;20036;-85
2023/11/14 18:48:48;;;;;;;4.50;2.05;;;;;;;;;;10549247;28;20036;-86
2023/11/14 18:53:49;;;;;;;3.53;1.90;;;;;;;;;;10549290;28;20028;-85
2023/11/14 18:58:59;;;;;;;4.15;2.17;;;;;;;;;;10552764;28;20036;-83
2023/11/14 19:04:02;;;;;;;5.75;2.97;;;;;;;;;;10551644;28;20051;-83
2023/11/14 19:09:04;;;;;;;3.58;1.73;;;;;;;;;;10551829;28;20050;-82
2023/11/14 19:14:05;;;;;;;2.88;1.58;;;;;;;;;;10550087;28;20512;-82
2023/11/14 19:19:09;;;;;;;2.95;1.67;;;;;;;;;;10551456;28;20055;-82
2023/11/14 19:24:18;;;;;;;2.17;1.30;;;;;;;;;;10554867;28;20115;-83
2023/11/14 19:29:46;;;;;;;2.50;1.40;;;;;;;;;;10558304;28;20036;-83
2023/11/14 19:34:57;;;;;;;3.03;1.50;;;;;;;;;;10557412;28;20043;-83
2023/11/14 19:40:09;;;;;;;3.38;1.83;;;;;;;;;;10529867;28;20054;-83
2023/11/14 19:45:10;;;;;;;3.75;1.90;;;;;;;;;;10552914;28;20439;-84
2023/11/14 19:50:11;;;;;;;4.57;1.80;;;;;;;;;;10552036;28;20127;-83
2023/11/14 19:55:21;;;;;;;3.03;1.60;;;;;;;;;;10551575;28;20036;-86
2023/11/14 20:00:33;;;;;;;3.15;1.63;;;;;;;;;;10548485;28;20055;-83
2023/11/14 20:05:35;;;;;;;3.38;1.90;;;;;;;;;;10562870;28;20314;-86
2023/11/14 20:10:38;;;;;;;6.28;2.13;;;;;;;;;;10571822;28;20040;-82
